Time;durP1;ratioP1;P1;durP2;ratioP2;P2;SDS_P1;SDS_P2;PMS_P1;PMS_P2;Temp;Humidity;BMP_temperature;BMP_pressure;BME280_temperature;BME280_humidity;BME280_pressure;Samples;Min_cycle;Max_cycle;Signal;HPM_P1;HPM_P2
2023/03/26 00:02:04;;;;;;;0.60;0.60;;;22.40;56.10;;;;;;5073270;28;20453;-65
2023/03/26 00:04:33;;;;;;;0.97;0.90;;;22.40;56.10;;;;;;5072591;28;20453;-66
2023/03/26 00:07:01;;;;;;;1.70;0.80;;;22.40;56.10;;;;;;5072954;28;20445;-65
2023/03/26 00:09:31;;;;;;;0.77;0.77;;;22.40;56.10;;;;;;5071210;28;20457;-65
2023/03/26 00:11:59;;;;;;;0.60;0.60;;;22.30;56.10;;;;;;5073044;28;20460;-65
2023/03/26 00:14:28;;;;;;;0.80;0.80;;;22.40;56.10;;;;;;5072380;28;20423;-64
2023/03/26 00:16:57;;;;;;;0.80;0.80;;;22.40;56.10;;;;;;5073162;28;20445;-66
2023/03/26 00:19:26;;;;;;;1.10;0.80;;;22.40;56.10;;;;;;5071991;28;20473;-64
2023/03/26 00:21:56;;;;;;;0.80;0.80;;;22.40;56.10;;;;;;5056995;28;20447;-64
2023/03/26 00:24:28;;;;;;;0.80;0.80;;;22.40;56.10;;;;;;5053142;28;20437;-64
2023/03/26 00:26:58;;;;;;;1.03;0.80;;;22.40;56.10;;;;;;5052517;28;20514;-66
2023/03/26 00:29:27;;;;;;;0.93;0.90;;;22.40;56.10;;;;;;5051074;28;20466;-65
2023/03/26 00:31:55;;;;;;;0.80;0.80;;;22.40;56.00;;;;;;5052732;28;20458;-64
2023/03/26 00:34:25;;;;;;;0.60;0.60;;;22.40;56.00;;;;;;5051956;28;20474;-65
2023/03/26 00:36:53;;;;;;;0.63;0.63;;;22.40;56.00;;;;;;5052532;28;20528;-65
2023/03/26 00:39:22;;;;;;;0.70;0.70;;;22.40;56.00;;;;;;5038738;28;20568;-65
2023/03/26 00:41:53;;;;;;;1.00;0.90;;;22.40;56.00;;;;;;5072520;28;20504;-64
2023/03/26 00:44:23;;;;;;;0.93;0.67;;;22.40;55.90;;;;;;5070940;28;20479;-65
2023/03/26 00:46:51;;;;;;;0.60;0.60;;;22.40;55.90;;;;;;5071287;28;20453;-64
2023/03/26 00:49:19;;;;;;;0.80;0.80;;;22.40;55.90;;;;;;5053471;28;20456;-65
2023/03/26 00:51:48;;;;;;;0.97;0.87;;;22.40;55.90;;;;;;5054595;28;20488;-65
2023/03/26 00:54:16;;;;;;;0.60;0.60;;;22.40;55.90;;;;;;5071786;28;20458;-64
2023/03/26 00:56:44;;;;;;;0.87;0.87;;;22.40;56.00;;;;;;5071317;28;20436;-65
2023/03/26 00:59:12;;;;;;;0.80;0.70;;;22.30;56.00;;;;;;5052985;28;20481;-66
2023/03/26 01:01:43;;;;;;;0.60;0.60;;;22.30;56.00;;;;;;5041653;28;20534;-64
2023/03/26 01:04:26;;;;;;;0.50;0.50;;;22.30;56.00;;;;;;5050970;28;20446;-65
2023/03/26 01:06:58;;;;;;;1.67;0.70;;;22.30;56.00;;;;;;5052328;28;20901;-65
2023/03/26 01:09:32;;;;;;;0.83;0.80;;;22.30;56.00;;;;;;5063215;28;20496;-65
2023/03/26 01:12:02;;;;;;;0.80;0.80;;;22.30;56.00;;;;;;5052571;28;20469;-65
2023/03/26 01:14:30;;;;;;;0.80;0.80;;;22.30;56.00;;;;;;5062593;28;20495;-65
2023/03/26 01:17:02;;;;;;;0.73;0.73;;;22.30;56.10;;;;;;5071967;28;20431;-65
2023/03/26 01:19:37;;;;;;;0.60;0.60;;;22.20;56.10;;;;;;5070606;28;20520;-67
2023/03/26 01:22:09;;;;;;;0.60;0.60;;;22.30;56.10;;;;;;5072168;28;20430;-65
2023/03/26 01:24:40;;;;;;;1.00;1.00;;;22.20;56.10;;;;;;5053496;28;20534;-66
2023/03/26 01:27:17;;;;;;;0.80;0.80;;;22.30;56.10;;;;;;5042016;28;20461;-67
2023/03/26 01:29:52;;;;;;;1.17;0.73;;;22.20;56.10;;;;;;5071526;28;20905;-65
2023/03/26 01:32:29;;;;;;;0.90;0.80;;;22.20;56.10;;;;;;5042406;28;20500;-65
2023/03/26 01:35:17;;;;;;;1.37;1.27;;;22.20;56.10;;;;;;5070705;28;20456;-65
2023/03/26 01:38:09;;;;;;;1.07;0.77;;;22.30;56.10;;;;;;5072063;28;20487;-65
2023/03/26 01:40:42;;;;;;;0.50;0.50;;;22.30;56.10;;;;;;5070404;28;20473;-65
2023/03/26 01:43:18;;;;;;;0.70;0.70;;;22.30;56.10;;;;;;5071144;28;20512;-65
2023/03/26 01:45:49;;;;;;;0.70;0.67;;;22.30;56.10;;;;;;5071430;28;20445;-66
2023/03/26 01:48:17;;;;;;;1.03;0.90;;;22.30;56.10;;;;;;5071495;28;20486;-65
2023/03/26 01:50:47;;;;;;;0.70;0.70;;;22.30;56.10;;;;;;5070425;28;20511;-66
2023/03/26 01:53:15;;;;;;;1.13;0.83;;;22.30;56.10;;;;;;5071483;28;20517;-65
2023/03/26 01:56:00;;;;;;;0.50;0.50;;;22.30;56.00;;;;;;5069561;28;20881;-64
2023/03/26 01:58:37;;;;;;;0.70;0.63;;;22.30;56.00;;;;;;5059726;28;20453;-64
2023/03/26 02:01:18;;;;;;;1.00;0.73;;;22.30;56.00;;;;;;5069808;28;20515;-65
2023/03/26 02:03:57;;;;;;;1.10;0.77;;;22.30;56.00;;;;;;5055143;28;20452;-66
2023/03/26 02:06:33;;;;;;;0.70;0.70;;;22.30;56.00;;;;;;5057080;28;20453;-65
2023/03/26 02:09:04;;;;;;;0.97;0.73;;;22.30;56.00;;;;;;5071243;28;20488;-64
2023/03/26 02:11:37;;;;;;;0.90;0.80;;;22.30;56.00;;;;;;5054039;28;21169;-66
2023/03/26 02:14:05;;;;;;;0.53;0.53;;;22.30;56.00;;;;;;5053784;28;20482;-64
2023/03/26 02:16:33;;;;;;;1.00;0.60;;;22.30;56.00;;;;;;5055062;28;20484;-65
2023/03/26 02:19:03;;;;;;;0.80;0.70;;;22.30;56.00;;;;;;5053215;28;20532;-64
2023/03/26 02:21:32;;;;;;;0.90;0.83;;;22.30;56.00;;;;;;5055096;28;20487;-64
2023/03/26 02:24:02;;;;;;;0.83;0.80;;;22.30;56.00;;;;;;5072226;28;20448;-65
2023/03/26 02:26:37;;;;;;;1.07;0.73;;;22.30;56.00;;;;;;5057248;28;20449;-65
2023/03/26 02:29:09;;;;;;;0.70;0.50;;;22.20;56.00;;;;;;5056634;28;20467;-64
2023/03/26 02:31:39;;;;;;;0.70;0.70;;;22.30;56.00;;;;;;5057307;28;20468;-64
2023/03/26 02:34:08;;;;;;;1.27;0.77;;;22.20;56.00;;;;;;5055273;28;20477;-64
2023/03/26 02:36:41;;;;;;;0.70;0.50;;;22.20;56.00;;;;;;5056805;28;20454;-65
2023/03/26 02:39:13;;;;;;;0.70;0.70;;;22.20;56.00;;;;;;5056365;28;20477;-65
2023/03/26 02:41:46;;;;;;;1.37;0.77;;;22.20;56.00;;;;;;5056929;28;20460;-64
2023/03/26 02:44:14;;;;;;;0.73;0.73;;;22.20;56.00;;;;;;5053602;28;20458;-65
2023/03/26 02:47:00;;;;;;;0.70;0.57;;;22.20;56.00;;;;;;5068473;28;20463;-66
2023/03/26 02:49:47;;;;;;;0.90;0.90;;;22.20;56.00;;;;;;5077482;28;20455;-65
2023/03/26 02:52:24;;;;;;;1.03;0.73;;;22.20;56.00;;;;;;5076499;28;20527;-64
2023/03/26 02:54:55;;;;;;;1.43;1.10;;;22.20;56.00;;;;;;5076574;28;20447;-65
2023/03/26 02:57:26;;;;;;;0.70;0.50;;;22.30;56.00;;;;;;5095003;28;20519;-65
2023/03/26 03:00:17;;;;;;;0.80;0.80;;;22.20;55.90;;;;;;5046581;28;20485;-65
2023/03/26 03:02:46;;;;;;;0.60;0.60;;;22.30;55.90;;;;;;5072978;28;20531;-65
2023/03/26 03:05:30;;;;;;;0.87;0.87;;;22.30;55.90;;;;;;5073708;28;20921;-66
2023/03/26 03:08:19;;;;;;;0.70;0.70;;;22.30;55.90;;;;;;5073415;28;20456;-66
2023/03/26 03:11:22;;;;;;;1.70;0.80;;;22.20;55.90;;;;;;5004434;28;20458;-64
2023/03/26 03:13:53;;;;;;;0.60;0.60;;;22.30;55.90;;;;;;5053435;28;20512;-65
2023/03/26 03:16:24;;;;;;;1.07;1.07;;;22.20;55.90;;;;;;5069481;28;20458;-65
2023/03/26 03:18:55;;;;;;;0.90;0.90;;;22.20;55.90;;;;;;5037266;28;20495;-65
2023/03/26 03:21:33;;;;;;;1.37;0.80;;;22.20;55.90;;;;;;5035433;28;21020;-65
2023/03/26 03:24:01;;;;;;;0.60;0.60;;;22.20;55.90;;;;;;5053933;28;20448;-65
2023/03/26 03:26:35;;;;;;;2.00;0.80;;;22.20;55.90;;;;;;5054193;28;20432;-65
2023/03/26 03:29:25;;;;;;;0.60;0.60;;;22.20;55.90;;;;;;5052530;28;20467;-64
2023/03/26 03:31:54;;;;;;;0.87;0.70;;;22.20;55.90;;;;;;5036266;28;20462;-65
2023/03/26 03:34:38;;;;;;;1.80;0.73;;;22.20;56.00;;;;;;5054647;28;20464;-64
2023/03/26 03:37:07;;;;;;;0.73;0.73;;;22.20;56.00;;;;;;5052229;28;20442;-64
2023/03/26 03:39:43;;;;;;;0.90;0.90;;;22.20;56.00;;;;;;5051883;28;20496;-66
2023/03/26 03:42:14;;;;;;;1.97;0.90;;;22.20;56.00;;;;;;5052270;28;20466;-65
2023/03/26 03:44:43;;;;;;;0.83;0.70;;;22.20;56.00;;;;;;5064576;28;20476;-65
2023/03/26 03:47:38;;;;;;;0.80;0.77;;;22.20;56.00;;;;;;5049385;28;20449;-65
2023/03/26 03:50:08;;;;;;;0.67;0.67;;;22.20;56.00;;;;;;5054857;28;20937;-65
2023/03/26 03:52:39;;;;;;;0.73;0.73;;;22.30;55.90;;;;;;5055742;28;20485;-65
2023/03/26 03:55:09;;;;;;;1.03;0.60;;;22.30;55.90;;;;;;5055393;28;20632;-65
2023/03/26 03:57:45;;;;;;;1.00;0.90;;;22.30;55.90;;;;;;5054895;28;20464;-65
2023/03/26 04:00:21;;;;;;;0.60;0.60;;;22.30;55.80;;;;;;5071689;28;20564;-64
2023/03/26 04:03:05;;;;;;;0.77;0.70;;;22.20;55.80;;;;;;5054309;28;20473;-66
2023/03/26 04:05:34;;;;;;;0.60;0.60;;;22.20;55.80;;;;;;5054126;28;20909;-64
2023/03/26 04:08:02;;;;;;;1.33;0.60;;;22.20;55.80;;;;;;5055109;28;20545;-65
2023/03/26 04:10:45;;;;;;;0.70;0.70;;;22.20;55.80;;;;;;5054802;28;20543;-65
2023/03/26 04:13:17;;;;;;;0.70;0.70;;;22.20;55.80;;;;;;5073252;28;20430;-64
2023/03/26 04:16:11;;;;;;;0.60;0.60;;;22.20;55.80;;;;;;5054741;28;20502;-65
2023/03/26 04:18:39;;;;;;;1.07;0.73;;;22.20;55.80;;;;;;5054759;28;20941;-64
2023/03/26 04:21:14;;;;;;;0.97;0.90;;;22.20;55.80;;;;;;5072941;28;20492;-65
2023/03/26 04:23:44;;;;;;;1.17;1.03;;;22.20;55.90;;;;;;5054547;28;20535;-66
2023/03/26 04:26:25;;;;;;;0.73;0.73;;;22.20;55.90;;;;;;5050771;28;20478;-65
2023/03/26 04:29:10;;;;;;;0.67;0.67;;;22.20;55.90;;;;;;5051119;28;20457;-65
2023/03/26 04:31:41;;;;;;;0.60;0.60;;;22.20;55.90;;;;;;5034692;28;20446;-66
2023/03/26 04:34:22;;;;;;;0.73;0.73;;;22.20;55.90;;;;;;5066231;28;20985;-65
2023/03/26 04:37:01;;;;;;;0.80;0.80;;;22.20;55.90;;;;;;5055141;28;20469;-65
2023/03/26 04:39:35;;;;;;;0.60;0.60;;;22.20;55.90;;;;;;5052417;28;20810;-65
2023/03/26 04:42:36;;;;;;;0.83;0.83;;;22.20;55.90;;;;;;5057721;28;20456;-65
2023/03/26 04:45:13;;;;;;;0.70;0.70;;;22.30;55.90;;;;;;5071177;28;20522;-64
2023/03/26 04:47:45;;;;;;;0.70;0.70;;;22.30;55.80;;;;;;5071264;28;20992;-65
2023/03/26 04:50:14;;;;;;;1.40;0.70;;;22.30;55.80;;;;;;5045648;28;20497;-65
2023/03/26 04:52:43;;;;;;;1.13;0.80;;;22.30;55.70;;;;;;5053773;28;20484;-65
2023/03/26 04:55:37;;;;;;;0.60;0.60;;;22.30;55.70;;;;;;5072137;28;20500;-65
2023/03/26 04:58:14;;;;;;;1.43;0.80;;;22.40;55.60;;;;;;5053709;28;20457;-65
2023/03/26 05:01:02;;;;;;;0.73;0.63;;;22.30;55.60;;;;;;5063575;28;20805;-66
2023/03/26 05:03:44;;;;;;;0.73;0.70;;;22.30;55.60;;;;;;5053011;28;20461;-65
2023/03/26 05:06:15;;;;;;;0.70;0.67;;;22.30;55.60;;;;;;5053926;28;20462;-66
2023/03/26 05:08:43;;;;;;;0.80;0.80;;;22.30;55.60;;;;;;5053312;28;20493;-65
2023/03/26 05:11:19;;;;;;;0.60;0.60;;;22.30;55.60;;;;;;5034094;28;20470;-64
2023/03/26 05:13:48;;;;;;;2.97;0.87;;;22.30;55.60;;;;;;5051603;28;20812;-64
2023/03/26 05:16:16;;;;;;;0.70;0.70;;;22.30;55.60;;;;;;5034245;28;20595;-64
2023/03/26 05:18:52;;;;;;;1.17;1.00;;;22.30;55.60;;;;;;5036164;28;20833;-65
2023/03/26 05:21:22;;;;;;;0.70;0.70;;;22.30;55.60;;;;;;5059195;28;20887;-66
2023/03/26 05:23:50;;;;;;;1.47;0.60;;;22.20;55.60;;;;;;5052449;28;20460;-64
2023/03/26 05:26:21;;;;;;;1.03;0.80;;;22.20;55.70;;;;;;5054145;28;20967;-64
2023/03/26 05:28:49;;;;;;;0.70;0.70;;;22.20;55.60;;;;;;5050280;28;20458;-64
2023/03/26 05:31:35;;;;;;;0.70;0.70;;;22.20;55.70;;;;;;5052646;28;20540;-65
2023/03/26 05:34:05;;;;;;;0.83;0.63;;;22.20;55.70;;;;;;5069671;28;20465;-65
2023/03/26 05:36:33;;;;;;;0.70;0.67;;;22.20;55.70;;;;;;5052631;28;20499;-65
2023/03/26 05:39:28;;;;;;;0.70;0.63;;;22.20;55.70;;;;;;5067707;28;20512;-64
2023/03/26 05:42:06;;;;;;;0.50;0.50;;;22.20;55.70;;;;;;5069277;28;20576;-64
2023/03/26 05:45:01;;;;;;;0.90;0.90;;;22.10;55.70;;;;;;5065112;28;20953;-65
2023/03/26 05:47:32;;;;;;;1.03;0.60;;;22.10;55.70;;;;;;5053430;28;20959;-65
2023/03/26 05:50:01;;;;;;;1.40;1.13;;;22.10;55.80;;;;;;5048952;28;20477;-65
2023/03/26 05:52:30;;;;;;;0.43;0.43;;;22.10;55.80;;;;;;5050400;28;20905;-64
2023/03/26 05:55:27;;;;;;;0.97;0.80;;;22.10;55.80;;;;;;5041717;28;20486;-64
2023/03/26 05:58:14;;;;;;;0.77;0.77;;;22.10;55.80;;;;;;5057341;28;20486;-65
2023/03/26 06:00:48;;;;;;;0.73;0.73;;;22.10;55.80;;;;;;5071507;28;20445;-64
2023/03/26 06:03:27;;;;;;;0.70;0.70;;;22.20;55.80;;;;;;5053307;28;20772;-64
2023/03/26 06:06:17;;;;;;;0.80;0.80;;;22.20;55.80;;;;;;5069526;28;20526;-65
2023/03/26 06:09:03;;;;;;;0.87;0.87;;;22.20;55.70;;;;;;5052653;28;20457;-65
2023/03/26 06:11:32;;;;;;;0.80;0.80;;;22.20;55.70;;;;;;5069729;28;20457;-64
2023/03/26 06:14:03;;;;;;;1.10;0.93;;;22.20;55.70;;;;;;5052752;28;20976;-65
2023/03/26 06:16:32;;;;;;;0.50;0.50;;;22.20;55.60;;;;;;5053174;28;20454;-65
2023/03/26 06:19:14;;;;;;;0.70;0.60;;;22.20;55.60;;;;;;5052466;28;20479;-65
2023/03/26 06:22:07;;;;;;;0.50;0.50;;;22.20;55.60;;;;;;5070153;28;20484;-65
2023/03/26 06:24:52;;;;;;;0.73;0.60;;;22.20;55.60;;;;;;5052585;28;20471;-64
2023/03/26 06:27:42;;;;;;;0.80;0.80;;;22.20;55.60;;;;;;5052898;28;20511;-65
2023/03/26 06:30:46;;;;;;;1.90;1.00;;;22.20;55.60;;;;;;5058159;28;20461;-65
2023/03/26 06:33:36;;;;;;;0.73;0.60;;;22.20;55.60;;;;;;5052671;28;20536;-65
2023/03/26 06:36:06;;;;;;;0.73;0.70;;;22.20;55.60;;;;;;5048778;28;20457;-65
2023/03/26 06:38:36;;;;;;;0.80;0.70;;;22.20;55.60;;;;;;5050939;28;20425;-64
2023/03/26 06:41:07;;;;;;;0.70;0.53;;;22.20;55.60;;;;;;5049332;28;20458;-66
2023/03/26 06:43:38;;;;;;;0.80;0.50;;;22.20;55.60;;;;;;5070516;28;20445;-66
2023/03/26 06:46:35;;;;;;;0.57;0.57;;;22.20;55.60;;;;;;5070570;28;20444;-67
2023/03/26 06:49:42;;;;;;;1.00;0.70;;;22.20;55.60;;;;;;4951325;29;21003;-67
2023/03/26 06:52:38;;;;;;;0.80;0.80;;;22.20;55.60;;;;;;4951822;29;20462;-66
2023/03/26 06:55:25;;;;;;;0.80;0.80;;;22.20;55.60;;;;;;5047361;28;20453;-65
2023/03/26 06:58:28;;;;;;;0.80;0.80;;;22.20;55.60;;;;;;5011750;28;20509;-66
2023/03/26 07:01:34;;;;;;;0.77;0.77;;;22.20;55.60;;;;;;5072437;28;20477;-65
2023/03/26 07:04:41;;;;;;;0.77;0.77;;;22.20;55.60;;;;;;5011266;28;20457;-64
2023/03/26 07:07:28;;;;;;;0.77;0.63;;;22.20;55.60;;;;;;5012291;28;20909;-64
2023/03/26 07:10:15;;;;;;;1.10;0.67;;;22.20;55.60;;;;;;5057068;28;20456;-64
2023/03/26 07:13:05;;;;;;;0.80;0.80;;;22.20;55.60;;;;;;5061693;28;20805;-65
2023/03/26 07:15:59;;;;;;;0.57;0.57;;;22.20;55.60;;;;;;5062495;28;20461;-64
2023/03/26 07:18:29;;;;;;;0.63;0.50;;;22.20;55.50;;;;;;5063771;28;20452;-65
2023/03/26 07:20:59;;;;;;;0.43;0.43;;;22.20;55.50;;;;;;5055438;28;21006;-64
2023/03/26 07:23:31;;;;;;;0.80;0.80;;;22.20;55.50;;;;;;5055788;28;20478;-64
2023/03/26 07:26:36;;;;;;;0.57;0.53;;;22.20;55.50;;;;;;5018469;28;20442;-64
2023/03/26 07:29:24;;;;;;;0.97;0.77;;;22.20;55.50;;;;;;5055484;28;20448;-65
2023/03/26 07:32:14;;;;;;;0.70;0.70;;;22.20;55.50;;;;;;5074461;28;20442;-66
2023/03/26 07:35:10;;;;;;;2.67;1.00;;;22.20;55.50;;;;;;5072697;28;20445;-65
2023/03/26 07:38:02;;;;;;;0.97;0.83;;;22.20;55.50;;;;;;5055752;28;20448;-66
2023/03/26 07:41:12;;;;;;;0.50;0.50;;;22.20;55.50;;;;;;4971919;28;20973;-65
2023/03/26 07:44:31;;;;;;;1.00;0.77;;;22.20;55.50;;;;;;4984313;28;20536;-65
2023/03/26 07:47:43;;;;;;;0.73;0.70;;;22.20;55.50;;;;;;5040790;28;20446;-65
2023/03/26 07:50:29;;;;;;;1.47;0.90;;;22.20;55.60;;;;;;5034644;28;20456;-65
2023/03/26 07:53:32;;;;;;;0.97;0.80;;;22.20;55.60;;;;;;4972166;28;20466;-64
2023/03/26 07:56:15;;;;;;;0.63;0.60;;;22.20;55.60;;;;;;5028850;28;20548;-65
2023/03/26 07:59:20;;;;;;;1.07;0.77;;;22.20;55.60;;;;;;5064601;28;20984;-65
2023/03/26 08:02:26;;;;;;;1.17;0.50;;;22.20;55.60;;;;;;5053725;28;20868;-65
2023/03/26 08:05:17;;;;;;;0.93;0.90;;;22.20;55.60;;;;;;5071150;28;20561;-65
2023/03/26 08:08:08;;;;;;;0.70;0.70;;;22.20;55.60;;;;;;5073039;28;20534;-64
2023/03/26 08:10:58;;;;;;;1.30;0.93;;;22.20;55.60;;;;;;5055221;28;20469;-65
2023/03/26 08:13:39;;;;;;;2.13;0.80;;;22.20;55.50;;;;;;5034924;28;20459;-65
2023/03/26 08:16:12;;;;;;;0.70;0.70;;;22.30;55.50;;;;;;5052546;28;21013;-65
2023/03/26 08:18:49;;;;;;;0.90;0.90;;;22.30;55.50;;;;;;5053235;28;20435;-64
2023/03/26 08:21:22;;;;;;;0.80;0.80;;;22.30;55.40;;;;;;5052855;28;20488;-65
2023/03/26 08:24:00;;;;;;;0.90;0.80;;;22.30;55.40;;;;;;5052402;28;20569;-66
2023/03/26 08:26:37;;;;;;;1.20;1.10;;;22.30;55.40;;;;;;5053294;28;20529;-64
2023/03/26 08:29:14;;;;;;;0.80;0.70;;;22.30;55.40;;;;;;5052086;28;21265;-65
2023/03/26 08:31:44;;;;;;;0.90;0.73;;;22.30;55.40;;;;;;5052987;28;20427;-65
2023/03/26 08:34:14;;;;;;;0.80;0.80;;;22.30;55.30;;;;;;5066973;28;20446;-64
2023/03/26 08:36:42;;;;;;;0.93;0.93;;;22.30;55.40;;;;;;5072684;28;20427;-65
2023/03/26 08:39:10;;;;;;;0.70;0.70;;;22.30;55.40;;;;;;5072205;28;20449;-65
2023/03/26 08:42:19;;;;;;;0.60;0.60;;;22.30;55.40;;;;;;5054075;28;20461;-64
2023/03/26 08:45:27;;;;;;;1.23;1.10;;;22.20;55.40;;;;;;5067451;28;20945;-64
2023/03/26 08:48:29;;;;;;;0.93;0.93;;;22.20;55.40;;;;;;5072148;28;20457;-64
2023/03/26 08:51:37;;;;;;;0.50;0.50;;;22.20;55.40;;;;;;5071218;28;20432;-66
2023/03/26 08:54:47;;;;;;;1.67;1.00;;;22.20;55.50;;;;;;5072257;28;20496;-64
2023/03/26 08:57:34;;;;;;;0.50;0.50;;;22.20;55.50;;;;;;5072562;28;20438;-64
2023/03/26 09:00:35;;;;;;;1.00;0.90;;;22.20;55.50;;;;;;5068626;28;20539;-64
2023/03/26 09:03:40;;;;;;;0.70;0.70;;;22.10;55.50;;;;;;5053813;28;20473;-64
2023/03/26 09:06:26;;;;;;;0.63;0.63;;;22.20;55.50;;;;;;5068876;28;20692;-66
2023/03/26 09:09:54;;;;;;;1.47;0.83;;;22.10;55.60;;;;;;5071914;28;20441;-65
2023/03/26 09:13:10;;;;;;;1.13;0.90;;;22.10;55.60;;;;;;5069645;28;20514;-66
2023/03/26 09:16:17;;;;;;;0.77;0.77;;;22.10;55.60;;;;;;5020917;28;20462;-65
2023/03/26 09:19:24;;;;;;;1.17;0.70;;;22.20;55.60;;;;;;5018361;28;20550;-66
2023/03/26 09:22:18;;;;;;;1.37;0.90;;;22.20;55.60;;;;;;5052170;28;20553;-65
2023/03/26 09:25:25;;;;;;;1.00;1.00;;;22.20;55.60;;;;;;5059162;28;20494;-66
2023/03/26 09:28:38;;;;;;;0.70;0.70;;;22.20;55.50;;;;;;5051502;28;20559;-66
2023/03/26 09:31:28;;;;;;;1.93;0.93;;;22.20;55.50;;;;;;4994019;28;20933;-65
2023/03/26 09:34:05;;;;;;;1.40;0.70;;;22.20;55.50;;;;;;5059231;28;20520;-65
2023/03/26 09:36:46;;;;;;;0.93;0.93;;;22.20;55.50;;;;;;5071338;28;20521;-66
2023/03/26 09:39:22;;;;;;;0.70;0.70;;;22.20;55.50;;;;;;5053795;28;20457;-65
2023/03/26 09:42:06;;;;;;;2.40;0.80;;;22.30;55.50;;;;;;5059166;28;21013;-64
2023/03/26 09:45:00;;;;;;;1.00;0.70;;;22.20;55.50;;;;;;5056189;28;20484;-65
2023/03/26 09:47:43;;;;;;;0.63;0.63;;;22.30;55.40;;;;;;5051735;28;20438;-64
2023/03/26 09:50:33;;;;;;;0.90;0.73;;;22.30;55.40;;;;;;5049225;28;20784;-65
2023/03/26 09:53:21;;;;;;;0.90;0.83;;;22.30;55.40;;;;;;5051726;28;20426;-66
2023/03/26 09:56:14;;;;;;;1.60;0.90;;;22.30;55.40;;;;;;5070954;28;20465;-64
2023/03/26 09:59:07;;;;;;;0.93;0.87;;;22.30;55.40;;;;;;5037478;28;21189;-65
2023/03/26 10:01:41;;;;;;;0.60;0.60;;;22.30;55.30;;;;;;5059984;28;20999;-65
2023/03/26 10:04:41;;;;;;;1.47;1.10;;;22.30;55.30;;;;;;5060168;28;20474;-64
2023/03/26 10:07:25;;;;;;;1.43;1.00;;;22.30;55.30;;;;;;4965683;28;20454;-64
2023/03/26 10:10:01;;;;;;;1.00;1.00;;;22.30;55.30;;;;;;5054894;28;20548;-65
2023/03/26 10:12:37;;;;;;;1.00;1.00;;;22.30;55.30;;;;;;5069795;28;20512;-64
2023/03/26 10:15:27;;;;;;;0.80;0.80;;;22.30;55.30;;;;;;5053259;28;20926;-64
2023/03/26 10:18:09;;;;;;;2.17;1.33;;;22.30;55.20;;;;;;5051498;28;21264;-64
2023/03/26 10:21:03;;;;;;;0.93;0.83;;;22.30;55.20;;;;;;5050530;28;20564;-64
2023/03/26 10:23:53;;;;;;;1.07;0.90;;;22.30;55.20;;;;;;5056922;28;20496;-64
2023/03/26 10:26:40;;;;;;;0.93;0.90;;;22.30;55.20;;;;;;5075144;28;20423;-64
2023/03/26 10:30:03;;;;;;;1.00;0.60;;;22.30;55.30;;;;;;5074744;28;20449;-65
2023/03/26 10:32:44;;;;;;;0.80;0.80;;;22.30;55.40;;;;;;5074289;28;20453;-64
2023/03/26 10:35:22;;;;;;;1.10;1.00;;;22.30;55.30;;;;;;5074090;28;20856;-64
2023/03/26 10:38:02;;;;;;;0.80;0.80;;;22.40;55.20;;;;;;5074815;28;20437;-64
2023/03/26 10:40:35;;;;;;;0.73;0.73;;;22.40;55.20;;;;;;5072856;28;20458;-64
2023/03/26 10:43:46;;;;;;;0.80;0.80;;;22.40;55.10;;;;;;5074184;28;20511;-64
2023/03/26 10:46:54;;;;;;;1.10;1.00;;;22.50;55.10;;;;;;5053242;28;20548;-64
2023/03/26 10:49:53;;;;;;;1.37;1.23;;;22.50;55.20;;;;;;5071129;28;20459;-65
2023/03/26 10:52:24;;;;;;;0.90;0.90;;;22.50;55.20;;;;;;5074739;28;20449;-64
2023/03/26 10:54:56;;;;;;;0.77;0.77;;;22.60;54.90;;;;;;5074142;28;20427;-65
2023/03/26 10:57:39;;;;;;;1.00;0.90;;;22.70;54.90;;;;;;5074497;28;20441;-64
2023/03/26 11:00:17;;;;;;;1.30;1.20;;;22.80;54.80;;;;;;5054192;28;20459;-65
2023/03/26 11:02:58;;;;;;;1.03;1.00;;;22.90;54.70;;;;;;5074024;28;20908;-65
2023/03/26 11:05:46;;;;;;;1.20;1.10;;;22.90;54.50;;;;;;5053510;28;20564;-64
2023/03/26 11:08:21;;;;;;;0.80;0.80;;;23.00;54.50;;;;;;5054563;28;20451;-65
2023/03/26 11:11:05;;;;;;;1.10;0.90;;;23.10;54.30;;;;;;5068271;28;20455;-65
2023/03/26 11:13:46;;;;;;;1.03;0.90;;;23.20;54.40;;;;;;5052671;28;20524;-65
2023/03/26 11:16:21;;;;;;;0.90;0.90;;;23.30;54.00;;;;;;5057011;28;20562;-64
2023/03/26 11:18:54;;;;;;;0.73;0.70;;;23.30;53.90;;;;;;5035553;28;20461;-65
2023/03/26 11:21:31;;;;;;;1.27;1.17;;;23.30;53.80;;;;;;5053711;28;21368;-65
2023/03/26 11:24:18;;;;;;;0.97;0.87;;;23.30;53.90;;;;;;5060722;28;20523;-64
2023/03/26 11:26:54;;;;;;;0.80;0.80;;;23.20;53.80;;;;;;5074357;28;20443;-65
2023/03/26 11:29:41;;;;;;;1.13;0.90;;;23.10;53.90;;;;;;5072635;28;20451;-65
2023/03/26 11:32:12;;;;;;;1.30;1.00;;;23.10;54.00;;;;;;5055421;28;20556;-65
2023/03/26 11:34:49;;;;;;;0.87;0.87;;;23.00;54.20;;;;;;5047068;28;20454;-65
2023/03/26 11:37:26;;;;;;;0.67;0.67;;;22.90;54.20;;;;;;5073591;28;20481;-65
2023/03/26 11:39:59;;;;;;;0.90;0.90;;;22.80;54.30;;;;;;5071811;28;20507;-66
2023/03/26 11:42:28;;;;;;;0.93;0.93;;;22.80;54.40;;;;;;5073491;28;20548;-64
2023/03/26 11:45:00;;;;;;;0.70;0.70;;;22.70;54.50;;;;;;5058019;28;20482;-65
2023/03/26 11:47:33;;;;;;;0.90;0.90;;;22.70;54.60;;;;;;5053879;28;20441;-64
2023/03/26 11:50:05;;;;;;;0.90;0.90;;;22.70;54.60;;;;;;5052880;28;20424;-64
2023/03/26 11:52:36;;;;;;;1.30;1.00;;;22.80;54.70;;;;;;5060357;28;20995;-65
2023/03/26 11:55:05;;;;;;;1.00;0.87;;;22.80;54.50;;;;;;5057231;28;20443;-66
2023/03/26 11:57:36;;;;;;;1.00;0.80;;;22.90;54.30;;;;;;5054103;28;20455;-65
2023/03/26 12:00:15;;;;;;;0.60;0.60;;;23.00;54.30;;;;;;5072793;28;20430;-65
2023/03/26 12:02:44;;;;;;;1.27;1.17;;;23.00;54.20;;;;;;5073551;28;20462;-64
2023/03/26 12:05:18;;;;;;;1.10;1.00;;;22.90;54.20;;;;;;5054590;28;20474;-66
2023/03/26 12:07:52;;;;;;;1.00;0.90;;;22.90;54.20;;;;;;5073077;28;20445;-64
2023/03/26 12:10:27;;;;;;;0.90;0.90;;;22.90;54.30;;;;;;5071023;28;20449;-64
2023/03/26 12:12:59;;;;;;;1.60;0.80;;;22.80;54.40;;;;;;5055063;28;20469;-65
2023/03/26 12:15:29;;;;;;;1.07;0.97;;;22.80;54.50;;;;;;5053834;28;20440;-64
2023/03/26 12:17:59;;;;;;;1.07;0.90;;;22.80;54.60;;;;;;5052654;28;20442;-64
2023/03/26 12:20:37;;;;;;;1.27;0.97;;;22.70;54.70;;;;;;5052210;28;20485;-65
2023/03/26 12:23:27;;;;;;;1.63;0.90;;;22.70;54.80;;;;;;5052674;28;20481;-65
2023/03/26 12:26:10;;;;;;;0.60;0.60;;;22.60;54.90;;;;;;5051033;28;20475;-65
2023/03/26 12:28:45;;;;;;;0.80;0.80;;;22.60;54.90;;;;;;5053094;28;20481;-64
2023/03/26 12:31:16;;;;;;;1.40;0.83;;;22.60;54.90;;;;;;5052677;28;20441;-64
2023/03/26 12:34:02;;;;;;;0.87;0.87;;;22.60;54.90;;;;;;5056333;28;20438;-66
2023/03/26 12:36:32;;;;;;;2.50;1.20;;;22.60;55.00;;;;;;5072915;28;20438;-64
2023/03/26 12:39:31;;;;;;;0.70;0.70;;;22.60;54.90;;;;;;5053019;28;20991;-64
2023/03/26 12:42:28;;;;;;;1.13;0.53;;;22.60;54.90;;;;;;5064551;28;20472;-64
2023/03/26 12:45:21;;;;;;;1.10;0.80;;;22.60;54.80;;;;;;5056623;28;20466;-65
2023/03/26 12:47:50;;;;;;;1.00;0.90;;;22.80;55.00;;;;;;5072243;28;20520;-64
2023/03/26 12:50:44;;;;;;;0.70;0.70;;;23.00;54.80;;;;;;5071478;28;20439;-64
2023/03/26 12:53:27;;;;;;;0.73;0.73;;;23.20;54.50;;;;;;5072149;28;20438;-64
2023/03/26 12:56:09;;;;;;;0.80;0.80;;;23.50;54.00;;;;;;5034513;28;20455;-65
2023/03/26 12:59:02;;;;;;;0.60;0.60;;;23.70;53.60;;;;;;5061295;28;20446;-65
2023/03/26 13:01:40;;;;;;;0.87;0.80;;;23.90;53.50;;;;;;5067315;28;20454;-64
2023/03/26 13:04:34;;;;;;;1.10;0.80;;;23.90;53.00;;;;;;5064691;28;20443;-64
2023/03/26 13:07:09;;;;;;;1.00;0.90;;;24.00;53.00;;;;;;5071184;28;20868;-64
2023/03/26 13:10:04;;;;;;;0.70;0.70;;;24.10;52.80;;;;;;5069642;28;20487;-64
2023/03/26 13:12:41;;;;;;;0.70;0.70;;;24.10;52.60;;;;;;5061917;28;20468;-64
2023/03/26 13:15:19;;;;;;;2.53;0.80;;;24.20;52.60;;;;;;5071271;28;20427;-64
2023/03/26 13:17:55;;;;;;;0.67;0.50;;;24.30;52.30;;;;;;5072535;28;20442;-64
2023/03/26 13:20:31;;;;;;;0.80;0.80;;;24.40;52.10;;;;;;5052834;28;20479;-64
2023/03/26 13:23:09;;;;;;;0.90;0.70;;;24.40;52.00;;;;;;5071824;28;20433;-66
2023/03/26 13:25:47;;;;;;;0.70;0.70;;;24.50;51.80;;;;;;5071687;28;20472;-64
2023/03/26 13:28:24;;;;;;;0.60;0.60;;;24.60;51.70;;;;;;5064587;28;20487;-65
2023/03/26 13:31:03;;;;;;;0.57;0.57;;;24.60;51.70;;;;;;5051466;28;20535;-65
2023/03/26 13:33:42;;;;;;;0.77;0.77;;;24.60;51.60;;;;;;5053206;28;20968;-64
2023/03/26 13:36:17;;;;;;;0.57;0.57;;;24.60;51.60;;;;;;5069473;28;20489;-64
2023/03/26 13:39:09;;;;;;;0.77;0.70;;;24.60;51.70;;;;;;5071258;28;20422;-65
2023/03/26 13:42:05;;;;;;;0.60;0.60;;;24.60;51.80;;;;;;5071954;28;20527;-64
2023/03/26 13:44:44;;;;;;;0.60;0.60;;;24.50;52.20;;;;;;5059200;28;20456;-64
2023/03/26 13:47:16;;;;;;;0.70;0.63;;;24.40;52.80;;;;;;5051443;28;21120;-66
2023/03/26 13:49:50;;;;;;;0.70;0.70;;;24.30;52.50;;;;;;5069763;28;20449;-65
2023/03/26 13:52:23;;;;;;;0.80;0.80;;;24.20;52.50;;;;;;5069701;28;20981;-64
2023/03/26 13:55:01;;;;;;;0.93;0.70;;;24.20;53.40;;;;;;5063063;28;20846;-64
2023/03/26 13:57:33;;;;;;;0.50;0.50;;;24.10;53.20;;;;;;5052460;28;20467;-65